createdAt,value
2023-05-16T02:17:15.150Z,97767.55
2023-05-16T02:22:19.636Z,97773.19
2023-05-16T02:27:24.034Z,97777.88
2023-05-16T02:32:28.411Z,97780.14
2023-05-16T02:37:33.017Z,97777.29
2023-05-16T02:42:38.009Z,97783.35
2023-05-16T02:47:43.219Z,97783.20
2023-05-16T02:52:48.202Z,97790.08
2023-05-16T02:57:53.132Z,97790.28
2023-05-16T03:02:57.784Z,97789.00
2023-05-16T03:08:02.808Z,97787.11
2023-05-16T03:13:07.550Z,97786.98
2023-05-16T03:18:12.152Z,97792.37
2023-05-16T03:23:16.757Z,97794.05
2023-05-16T03:28:21.616Z,97792.73
2023-05-16T03:33:26.011Z,97805.19
2023-05-16T03:38:30.835Z,97809.19
2023-05-16T03:43:35.811Z,97815.62
2023-05-16T03:48:40.566Z,97825.81
2023-05-16T03:53:45.170Z,97824.48
2023-05-16T03:58:50.171Z,97818.01
2023-05-16T04:03:54.489Z,97822.75
2023-05-16T04:08:58.901Z,97823.08
2023-05-16T04:14:03.865Z,97826.03
2023-05-16T04:19:08.088Z,97829.75
2023-05-16T04:24:13.079Z,97827.27
2023-05-16T04:29:18.153Z,97832.10
2023-05-16T04:34:27.673Z,97833.09
2023-05-16T04:39:32.324Z,97849.79
2023-05-16T04:44:37.095Z,97860.84
2023-05-16T04:49:41.677Z,97861.22
2023-05-16T04:54:46.232Z,97859.90
2023-05-16T04:59:50.945Z,97870.30
2023-05-16T05:04:55.623Z,97879.70
2023-05-16T05:10:00.801Z,97877.85
2023-05-16T05:15:06.233Z,97881.55
2023-05-16T05:20:11.925Z,97885.20
2023-05-16T05:25:16.836Z,97889.44
2023-05-16T05:30:21.808Z,97895.73
2023-05-16T05:35:26.650Z,97892.46
2023-05-16T05:40:31.572Z,97895.83
2023-05-16T05:45:36.348Z,97891.34
2023-05-16T05:50:41.224Z,97885.11
2023-05-16T05:55:46.138Z,97885.27
2023-05-16T06:00:51.113Z,97889.52
2023-05-16T06:05:56.087Z,97891.56
2023-05-16T06:11:01.295Z,97891.71
2023-05-16T06:16:07.565Z,97895.95
2023-05-16T06:21:14.956Z,97902.41
2023-05-16T06:26:19.353Z,97896.77
2023-05-16T06:31:24.305Z,97895.23
2023-05-16T06:36:28.881Z,97902.72
2023-05-16T06:41:33.959Z,97892.10
2023-05-16T06:46:38.950Z,97891.95
2023-05-16T06:51:43.801Z,97892.00
2023-05-16T06:56:49.030Z,97899.23
2023-05-16T07:01:53.678Z,97894.71
2023-05-16T07:06:58.596Z,97894.62
2023-05-16T07:12:03.088Z,97900.27
2023-05-16T07:17:08.184Z,97905.83
2023-05-16T07:22:13.187Z,97901.79
2023-05-16T07:27:18.495Z,97907.70
2023-05-16T07:32:23.544Z,97911.66
2023-05-16T07:37:30.569Z,97916.13
2023-05-16T07:42:35.938Z,97924.47
2023-05-16T07:47:40.693Z,97927.96
2023-05-16T07:52:46.400Z,97933.34
2023-05-16T07:57:51.197Z,97943.45
2023-05-16T08:02:55.875Z,97958.61
2023-05-16T08:08:00.957Z,97966.34
2023-05-16T08:13:06.356Z,97977.92
2023-05-16T08:18:15.380Z,97979.20
2023-05-16T08:23:21.136Z,97981.03
2023-05-16T08:28:26.313Z,97982.71
2023-05-16T08:33:31.081Z,97989.55
2023-05-16T08:38:35.889Z,97987.48
2023-05-16T08:43:40.309Z,97980.05
2023-05-16T08:48:46.849Z,97985.02
2023-05-16T08:53:54.896Z,97984.81
2023-05-16T08:59:00.001Z,97968.29
2023-05-16T09:04:08.431Z,97973.77
2023-05-16T09:09:13.303Z,97969.95
2023-05-16T09:14:18.238Z,97969.71
2023-05-16T09:19:23.758Z,97972.40
2023-05-16T09:24:28.118Z,97978.48
2023-05-16T09:29:36.646Z,97976.05
2023-05-16T09:34:43.829Z,97967.12
2023-05-16T09:39:49.264Z,97967.31
2023-05-16T09:44:55.997Z,97980.42
2023-05-16T09:50:00.882Z,97977.16
2023-05-16T09:55:07.086Z,97979.23
2023-05-16T10:00:13.120Z,97978.61
2023-05-16T10:05:18.443Z,97977.46
2023-05-16T10:10:23.716Z,97979.45
2023-05-16T10:15:29.388Z,97971.74
2023-05-16T10:20:34.978Z,97963.95
2023-05-16T10:25:42.232Z,97962.52
2023-05-16T10:30:47.710Z,97967.27
2023-05-16T10:35:52.142Z,97962.13
2023-05-16T10:40:57.230Z,97960.48
2023-05-16T10:46:03.468Z,97956.59
2023-05-16T10:51:29.813Z,97956.51
2023-05-16T10:56:34.973Z,97963.31
2023-05-16T11:01:41.274Z,97957.39
2023-05-16T11:06:52.673Z,97960.92
2023-05-16T11:12:06.636Z,97952.19
2023-05-16T11:17:13.004Z,97949.63
2023-05-16T11:22:24.765Z,97948.62
2023-05-16T11:27:29.842Z,97945.22
2023-05-16T11:32:36.143Z,97934.88
2023-05-16T11:37:41.285Z,97928.39
2023-05-16T11:42:47.797Z,97925.53
2023-05-16T11:47:52.648Z,97929.27
2023-05-16T11:52:57.805Z,97933.41
2023-05-16T11:58:02.445Z,97925.77
2023-05-16T12:03:08.012Z,97934.64
2023-05-16T12:08:12.932Z,97930.61
2023-05-16T12:13:19.297Z,97932.49
2023-05-16T12:18:28.367Z,97934.95
2023-05-16T12:23:33.565Z,97934.11
2023-05-16T12:28:39.338Z,97932.52
2023-05-16T12:33:45.656Z,97928.33
2023-05-16T12:38:52.077Z,97923.58
2023-05-16T12:44:08.063Z,97922.36
2023-05-16T12:49:13.063Z,97923.98
2023-05-16T12:54:18.364Z,97912.94
2023-05-16T12:59:23.157Z,97906.83
2023-05-16T13:04:27.976Z,97909.48
2023-05-16T13:09:33.303Z,97905.29
2023-05-16T13:14:41.922Z,97899.03
2023-05-16T13:19:49.105Z,97902.99
2023-05-16T13:24:54.946Z,97903.65
2023-05-16T13:29:59.553Z,97906.97
2023-05-16T13:35:04.484Z,97901.22
2023-05-16T13:40:10.157Z,97891.10
2023-05-16T13:45:14.831Z,97889.04
2023-05-16T13:50:20.364Z,97891.74
2023-05-16T13:55:25.706Z,97889.46
2023-05-16T14:00:43.238Z,97888.69
2023-05-16T14:05:49.905Z,97890.73
2023-05-16T14:10:54.842Z,97893.23
2023-05-16T14:15:59.418Z,97892.65
2023-05-16T14:21:04.638Z,97881.14
2023-05-16T14:26:10.468Z,97876.41
2023-05-16T14:31:15.332Z,97877.66
2023-05-16T14:36:20.212Z,97886.86
2023-05-16T14:41:25.332Z,97886.66
2023-05-16T14:46:30.410Z,97890.06
2023-05-16T14:51:35.509Z,97896.70
2023-05-16T14:56:40.342Z,97909.67
2023-05-16T15:01:44.979Z,97919.96
2023-05-16T15:06:49.926Z,97929.48
2023-05-16T15:11:54.791Z,97931.45
2023-05-16T15:16:59.347Z,97931.66
2023-05-16T15:22:07.765Z,97933.77
2023-05-16T15:27:12.904Z,97942.19
2023-05-16T15:32:18.250Z,97941.80
2023-05-16T15:37:23.353Z,97945.91
2023-05-16T15:42:28.279Z,97946.44
2023-05-16T15:47:32.834Z,97943.41
2023-05-16T15:52:37.373Z,97936.45
2023-05-16T15:57:43.537Z,97937.62
2023-05-16T16:02:48.421Z,97936.02
2023-05-16T16:07:53.665Z,97931.90
2023-05-16T16:13:02.129Z,97930.44
2023-05-16T16:18:07.213Z,97930.20
2023-05-16T16:23:12.185Z,97936.54
2023-05-16T16:28:16.911Z,97942.77
2023-05-16T16:33:21.691Z,97936.75
2023-05-16T16:38:26.258Z,97936.23
2023-05-16T16:43:30.925Z,97941.25
2023-05-16T16:48:35.735Z,97945.69
2023-05-16T16:53:41.512Z,97949.30
2023-05-16T16:58:46.601Z,97955.59
2023-05-16T17:03:51.492Z,97953.98
2023-05-16T17:08:56.475Z,97960.38
2023-05-16T17:14:01.034Z,97959.69
2023-05-16T17:19:06.049Z,97960.65
2023-05-16T17:24:11.177Z,97972.90
2023-05-16T17:29:15.925Z,97978.38
2023-05-16T17:34:20.680Z,97980.75
2023-05-16T17:39:25.756Z,97978.09
2023-05-16T17:44:30.872Z,97980.02
2023-05-16T17:49:35.908Z,97977.38
2023-05-16T17:54:40.761Z,97981.50
2023-05-16T17:59:45.552Z,97976.66
2023-05-16T18:04:50.133Z,97974.86
2023-05-16T18:09:54.843Z,97989.58
2023-05-16T18:14:59.726Z,97988.71
2023-05-16T18:20:09.722Z,97978.88
2023-05-16T18:25:15.077Z,97973.43
2023-05-16T18:30:19.981Z,97975.34
2023-05-16T18:35:27.408Z,97983.41
2023-05-16T18:40:32.578Z,97991.79
2023-05-16T18:45:37.199Z,98001.55
2023-05-16T18:50:41.951Z,97995.52
2023-05-16T18:55:48.207Z,98001.67
2023-05-16T19:00:52.530Z,98025.03
2023-05-16T19:05:57.535Z,98031.83
2023-05-16T19:11:02.579Z,98031.19
2023-05-16T19:16:07.484Z,98030.02
2023-05-16T19:21:14.883Z,98026.45
2023-05-16T19:26:19.975Z,98034.15
2023-05-16T19:31:24.804Z,98038.80
2023-05-16T19:36:29.575Z,98033.98
2023-05-16T19:41:33.946Z,98026.48
2023-05-16T19:46:39.554Z,98021.82
2023-05-16T19:51:43.813Z,98023.64
2023-05-16T19:56:48.382Z,98023.40
2023-05-16T20:01:53.463Z,98029.61
2023-05-16T20:06:58.293Z,98030.92
2023-05-16T20:12:03.172Z,98031.33
2023-05-16T20:17:08.311Z,98026.41
2023-05-16T20:22:13.592Z,98021.73
2023-05-16T20:27:18.000Z,98006.35
2023-05-16T20:32:22.799Z,97999.91
2023-05-16T20:37:27.749Z,98008.14
2023-05-16T20:42:32.209Z,98012.53
2023-05-16T20:47:37.442Z,98022.84
2023-05-16T20:52:42.080Z,98012.29
2023-05-16T20:57:46.629Z,97996.73
2023-05-16T21:02:51.311Z,97995.09
2023-05-16T21:07:56.187Z,97986.06
2023-05-16T21:13:00.761Z,97974.00
2023-05-16T21:18:05.924Z,97976.01
2023-05-16T21:23:10.502Z,97983.45
2023-05-16T21:28:15.397Z,97983.30
2023-05-16T21:33:20.417Z,97977.57
2023-05-16T21:38:25.445Z,97968.48
2023-05-16T21:43:30.402Z,97964.67
2023-05-16T21:48:35.203Z,97946.31
2023-05-16T21:53:40.318Z,97940.27
2023-05-16T21:58:45.146Z,97932.43
2023-05-16T22:03:50.090Z,97932.86
2023-05-16T22:08:55.267Z,97932.88
2023-05-16T22:14:00.050Z,97927.25
2023-05-16T22:19:04.835Z,97933.36
2023-05-16T22:24:09.592Z,97937.27
2023-05-16T22:29:14.419Z,97938.11
2023-05-16T22:34:19.336Z,97931.39
2023-05-16T22:39:23.924Z,97930.59
2023-05-16T22:44:28.652Z,97934.32
2023-05-16T22:49:33.492Z,97933.77
2023-05-16T22:54:37.963Z,97929.45
2023-05-16T22:59:42.552Z,97930.14
2023-05-16T23:04:47.119Z,97914.48
2023-05-16T23:09:51.814Z,97919.41
2023-05-16T23:14:57.824Z,97933.09
2023-05-16T23:20:02.716Z,97939.85
2023-05-16T23:25:08.460Z,97950.54
2023-05-16T23:30:13.472Z,97948.34
2023-05-16T23:35:18.302Z,97947.46
2023-05-16T23:40:22.941Z,97967.09
2023-05-16T23:45:30.096Z,97966.18
2023-05-16T23:50:35.522Z,97961.55
2023-05-16T23:55:42.950Z,97960.04
